Time;durP1;ratioP1;P1;durP2;ratioP2;P2;SDS_P1;SDS_P2;PMS_P1;PMS_P2;Temp;Humidity;BMP_temperature;BMP_pressure;BME280_temperature;BME280_humidity;BME280_pressure;Samples;Min_cycle;Max_cycle;Signal;HPM_P1;HPM_P2
2021/08/14 07:00:49;;;;;;;9.02;7.43;;;;;;;26.15;58.69;99334.09;5703609;23;20072;-75
2021/08/14 07:03:14;;;;;;;11.55;7.95;;;;;;;25.78;58.86;99347.41;4876234;29;20088;-73
2021/08/14 07:05:40;;;;;;;11.18;6.97;;;;;;;26.75;56.90;99343.81;4906035;29;20119;-72
2021/08/14 07:08:06;;;;;;;13.52;6.40;;;;;;;28.57;50.88;99336.53;4878574;29;20039;-76
2021/08/14 07:10:32;;;;;;;9.07;6.70;;;;;;;27.53;52.65;99344.94;4910148;29;20052;-80
2021/08/14 07:12:57;;;;;;;8.63;6.72;;;;;;;27.04;54.52;99343.41;4878663;29;20075;-80
2021/08/14 07:15:22;;;;;;;9.43;6.50;;;;;;;27.20;54.79;99343.94;4911942;29;20056;-81
2021/08/14 07:17:48;;;;;;;9.70;6.32;;;;;;;28.51;50.28;99347.72;4877495;29;20454;-77
2021/08/14 07:20:14;;;;;;;7.75;6.38;;;;;;;28.91;49.47;99348.75;4912254;29;20083;-76
2021/08/14 07:22:39;;;;;;;8.90;6.20;;;;;;;30.42;46.37;99337.28;4876143;29;20052;-77
2021/08/14 07:25:05;;;;;;;9.70;6.05;;;;;;;31.73;42.65;99331.25;4898425;29;20029;-81
2021/08/14 07:27:31;;;;;;;12.07;6.25;;;;;;;31.12;44.84;99337.09;4899637;29;20494;-78
2021/08/14 07:29:56;;;;;;;8.48;5.85;;;;;;;30.09;46.41;99334.97;4890099;29;20044;-76
2021/08/14 07:32:22;;;;;;;14.65;6.25;;;;;;;31.51;43.73;99334.31;4899391;29;20032;-82
2021/08/14 07:34:47;;;;;;;7.43;5.20;;;;;;;32.24;42.21;99327.13;4868131;29;20465;-79
2021/08/14 07:37:12;;;;;;;9.05;5.85;;;;;;;33.38;39.31;99329.94;4899477;29;20095;-82
2021/08/14 07:39:37;;;;;;;7.20;5.82;;;;;;;32.78;40.52;99330.66;4890021;29;20048;-80
2021/08/14 07:42:03;;;;;;;7.10;6.03;;;;;;;33.19;38.93;99325.63;4899251;29;20442;-83
2021/08/14 07:44:28;;;;;;;6.78;5.25;;;;;;;33.02;40.45;99323.81;4887403;29;20513;-77
2021/08/14 07:46:54;;;;;;;10.02;5.88;;;;;;;32.71;40.07;99326.94;4898374;29;20060;-80
2021/08/14 07:49:19;;;;;;;6.28;5.65;;;;;;;33.38;39.46;99325.38;4887445;29;20084;-82
2021/08/14 07:51:44;;;;;;;10.32;4.85;;;;;;;32.70;39.69;99325.25;4901061;29;20028;-83
2021/08/14 07:54:10;;;;;;;8.90;5.57;;;;;;;32.71;40.31;99322.41;4886279;29;20040;-77
2021/08/14 07:56:35;;;;;;;8.27;5.45;;;;;;;33.55;38.52;99317.44;4902328;29;20084;-82
2021/08/14 07:59:00;;;;;;;7.40;5.28;;;;;;;34.47;36.40;99316.53;4885077;29;20413;-83
2021/08/14 08:01:26;;;;;;;5.33;4.57;;;;;;;35.38;34.49;99310.88;4903061;29;20040;-80
2021/08/14 08:03:51;;;;;;;10.77;5.28;;;;;;;32.79;39.64;99318.09;4874739;29;20322;-83
2021/08/14 08:06:16;;;;;;;12.32;5.70;;;;;;;32.69;39.81;99316.34;4904660;29;20084;-77
2021/08/14 08:08:42;;;;;;;6.90;4.97;;;;;;;36.14;33.70;99303.16;4882664;29;20048;-80
2021/08/14 08:11:07;;;;;;;8.48;6.38;;;;;;;36.42;32.54;99309.75;4905351;29;20024;-81
2021/08/14 08:13:32;;;;;;;7.78;4.88;;;;;;;37.61;30.63;99304.50;4881369;29;20135;-82
2021/08/14 08:15:58;;;;;;;10.07;6.57;;;;;;;37.27;31.02;99308.59;4906606;29;20021;-81
2021/08/14 08:18:23;;;;;;;6.75;4.45;;;;;;;39.11;27.93;99296.44;4879894;29;20044;-80
2021/08/14 08:20:48;;;;;;;7.35;5.00;;;;;;;39.05;27.09;99303.50;4907521;29;20031;-81
2021/08/14 08:23:16;;;;;;;7.75;4.15;;;;;;;37.95;28.82;99307.44;4874882;29;20123;-81
2021/08/14 08:25:42;;;;;;;5.25;4.70;;;;;;;37.14;30.45;99303.03;4898487;29;20475;-80
2021/08/14 08:28:07;;;;;;;6.80;4.72;;;;;;;36.41;31.82;99302.63;4867911;29;20273;-80
2021/08/14 08:30:33;;;;;;;9.95;4.78;;;;;;;35.40;32.29;99295.41;4900472;29;20050;-80
2021/08/14 08:32:58;;;;;;;7.43;4.60;;;;;;;38.47;28.26;99292.81;4885403;29;20460;-79
2021/08/14 08:35:24;;;;;;;8.77;4.72;;;;;;;37.45;30.11;99295.59;4908420;29;20025;-80
2021/08/14 08:37:49;;;;;;;7.38;4.30;;;;;;;37.76;29.16;99289.09;4864586;29;20060;-78
2021/08/14 08:40:17;;;;;;;5.47;4.38;;;;;;;38.93;27.10;99289.69;4905318;29;20044;-78
2021/08/14 08:42:44;;;;;;;6.85;4.45;;;;;;;37.74;29.25;99289.28;4871444;29;20025;-72
2021/08/14 08:45:10;;;;;;;6.95;4.80;;;;;;;34.24;34.23;99289.44;4902342;29;20108;-73
2021/08/14 08:47:38;;;;;;;10.07;5.22;;;;;;;29.56;43.79;99292.50;4887371;29;20041;-73
2021/08/14 08:50:07;;;;;;;8.55;5.57;;;;;;;31.92;40.82;99282.91;4854935;29;20036;-75
2021/08/14 08:52:33;;;;;;;6.03;4.63;;;;;;;35.29;34.36;99279.56;4900865;29;20036;-73
2021/08/14 08:54:58;;;;;;;10.45;5.30;;;;;;;36.34;31.82;99277.38;4894238;29;20025;-72
2021/08/14 08:57:24;;;;;;;10.43;5.30;;;;;;;36.57;31.27;99279.25;4886427;29;20029;-74
2021/08/14 08:59:50;;;;;;;11.50;4.80;;;;;;;38.34;29.65;99276.44;4887035;29;20029;-73
2021/08/14 09:02:27;;;;;;;8.10;4.80;;;;;;;38.63;27.34;99271.88;4891176;29;20028;-73
2021/08/14 09:05:19;;;;;;;5.35;4.55;;;;;;;38.51;26.94;99275.13;4889734;29;20048;-76
2021/08/14 09:07:47;;;;;;;10.13;4.38;;;;;;;37.54;28.02;99278.22;4887711;29;20033;-71
2021/08/14 09:10:23;;;;;;;4.70;3.63;;;;;;;38.55;26.07;99275.59;4892118;29;20036;-78
2021/08/14 09:12:49;;;;;;;5.40;3.50;;;;;;;39.51;24.50;99273.97;4882104;29;20045;-72
2021/08/14 09:15:27;;;;;;;10.20;4.47;;;;;;;38.88;27.00;99275.88;4891423;29;20025;-72
2021/08/14 09:18:02;;;;;;;7.22;3.90;;;;;;;39.86;25.38;99271.19;4889681;29;20061;-79
2021/08/14 09:20:27;;;;;;;5.28;3.78;;;;;;;38.78;25.95;99269.94;4889427;29;20039;-78
2021/08/14 09:23:05;;;;;;;4.07;3.45;;;;;;;39.23;25.32;99263.19;4893903;29;20037;-72
2021/08/14 09:25:40;;;;;;;4.93;3.47;;;;;;;40.28;24.39;99261.03;4886852;29;20028;-77
2021/08/14 09:28:07;;;;;;;6.32;3.90;;;;;;;40.44;24.10;99260.66;4897367;29;20063;-76
2021/08/14 09:30:45;;;;;;;5.05;3.58;;;;;;;38.42;25.28;99264.63;4881692;29;20112;-79
2021/08/14 09:33:13;;;;;;;4.07;3.78;;;;;;;40.27;22.75;99262.94;4892129;29;20398;-72
2021/08/14 09:35:38;;;;;;;6.85;3.60;;;;;;;39.56;24.73;99260.63;4886240;29;20029;-79
2021/08/14 09:38:09;;;;;;;5.68;3.70;;;;;;;39.67;22.72;99258.41;4890685;29;20083;-71
2021/08/14 09:40:37;;;;;;;5.15;3.60;;;;;;;39.82;22.87;99261.78;4896054;29;20029;-77
2021/08/14 09:43:03;;;;;;;6.07;3.78;;;;;;;40.59;23.23;99257.75;4882917;29;20031;-72
2021/08/14 09:45:29;;;;;;;5.80;3.67;;;;;;;39.26;24.91;99251.09;4889272;29;20025;-76
2021/08/14 09:47:54;;;;;;;6.35;3.63;;;;;;;37.69;26.45;99253.03;4889625;29;20499;-76
2021/08/14 09:50:32;;;;;;;8.02;3.95;;;;;;;37.69;27.39;99247.59;4888784;29;20025;-72
2021/08/14 09:53:18;;;;;;;6.70;3.33;;;;;;;37.61;27.88;99243.13;4882129;29;20513;-72
2021/08/14 09:55:47;;;;;;;5.90;3.55;;;;;;;38.54;26.61;99241.44;4897055;29;20044;-71
2021/08/14 09:58:15;;;;;;;7.60;4.18;;;;;;;39.12;25.77;99238.47;4883471;29;20028;-72
2021/08/14 10:00:43;;;;;;;14.27;3.97;;;;;;;40.04;24.51;99222.56;4893252;29;20170;-71
2021/08/14 10:03:13;;;;;;;8.15;6.35;;;;;;;40.13;24.08;99225.09;4889441;29;20024;-72
2021/08/14 10:05:39;;;;;;;5.70;4.40;;;;;;;40.00;24.55;99217.75;4890380;29;20017;-72
2021/08/14 10:08:05;;;;;;;15.15;4.50;;;;;;;37.53;27.60;99219.75;4884481;29;20040;-71
2021/08/14 10:10:31;;;;;;;5.75;4.35;;;;;;;39.77;25.15;99218.13;4893262;29;20032;-71
2021/08/14 10:12:58;;;;;;;5.03;4.40;;;;;;;36.44;28.79;99224.00;4881684;29;20521;-71
2021/08/14 10:15:24;;;;;;;6.22;3.63;;;;;;;38.77;27.44;99203.25;4895059;29;20033;-71
2021/08/14 10:17:49;;;;;;;7.15;4.00;;;;;;;40.00;25.35;99210.44;4881178;29;20089;-71
2021/08/14 10:20:15;;;;;;;4.97;3.75;;;;;;;39.07;26.15;99211.97;4891437;29;20115;-71
2021/08/14 10:22:41;;;;;;;9.23;3.92;;;;;;;40.70;24.01;99199.19;4909317;29;20390;-72
2021/08/14 10:25:14;;;;;;;7.75;4.00;;;;;;;40.35;24.39;99210.28;4882894;29;20031;-72
2021/08/14 10:27:58;;;;;;;9.48;6.78;;;;;;;40.20;24.04;99204.22;4899348;29;20098;-71
2021/08/14 10:30:38;;;;;;;7.10;3.65;;;;;;;40.44;23.95;99200.03;4885617;29;20029;-71
2021/08/14 10:33:04;;;;;;;4.00;3.42;;;;;;;40.37;24.16;99200.03;4890846;29;20084;-71
2021/08/14 10:35:32;;;;;;;4.80;4.00;;;;;;;39.85;24.32;99184.56;4889762;29;20025;-71
2021/08/14 10:37:57;;;;;;;5.90;4.00;;;;;;;39.14;25.25;99182.19;4887984;29;20037;-72
2021/08/14 10:40:23;;;;;;;6.35;4.22;;;;;;;39.99;25.20;99175.34;4896069;29;20088;-72
2021/08/14 10:42:54;;;;;;;8.77;4.15;;;;;;;40.04;24.89;99173.72;4884671;29;20047;-73
2021/08/14 10:45:34;;;;;;;6.38;4.18;;;;;;;37.96;26.59;99173.00;4893506;29;20025;-72
2021/08/14 10:48:04;;;;;;;5.75;4.38;;;;;;;38.33;27.71;99171.88;4893408;29;20033;-72
2021/08/14 10:50:32;;;;;;;7.13;4.18;;;;;;;39.68;25.69;99173.22;4891829;29;20039;-73
2021/08/14 10:53:12;;;;;;;6.43;4.00;;;;;;;38.85;26.16;99170.56;4900053;29;20051;-72
2021/08/14 10:55:39;;;;;;;6.90;5.75;;;;;;;38.97;25.97;99158.13;4891153;29;20040;-72
2021/08/14 10:58:20;;;;;;;7.60;4.30;;;;;;;38.25;26.25;99166.59;4893839;29;20087;-72
2021/08/14 11:00:45;;;;;;;5.57;4.18;;;;;;;38.31;26.43;99160.41;4884105;29;20025;-72
2021/08/14 11:03:13;;;;;;;10.00;4.30;;;;;;;40.14;25.22;99161.63;4897101;29;20497;-72
2021/08/14 11:05:43;;;;;;;4.80;4.30;;;;;;;39.42;26.33;99153.13;4893405;29;20052;-72
2021/08/14 11:08:29;;;;;;;5.90;3.95;;;;;;;39.64;24.97;99151.09;4886955;29;20104;-72
2021/08/14 11:10:55;;;;;;;11.10;4.40;;;;;;;37.57;27.81;99155.28;4884365;29;20032;-72
2021/08/14 11:13:29;;;;;;;9.90;3.78;;;;;;;39.59;25.64;99143.53;4899664;29;20024;-72
2021/08/14 11:15:55;;;;;;;8.93;4.20;;;;;;;40.31;24.69;99141.97;4888575;29;20017;-72
2021/08/14 11:18:56;;;;;;;6.40;4.22;;;;;;;39.43;25.45;99143.94;4895405;29;20048;-72
2021/08/14 11:21:42;;;;;;;7.85;3.92;;;;;;;39.18;25.23;99129.22;4887650;29;20040;-72
2021/08/14 11:24:08;;;;;;;7.93;4.45;;;;;;;38.74;25.70;99138.59;4886606;29;20029;-72
2021/08/14 11:26:36;;;;;;;8.98;4.70;;;;;;;38.92;26.15;99130.78;4897002;29;20047;-72
2021/08/14 11:29:03;;;;;;;7.60;4.35;;;;;;;39.22;25.55;99125.94;4895188;29;20108;-72
2021/08/14 11:31:29;;;;;;;10.23;4.97;;;;;;;39.76;24.52;99127.75;4888268;29;20028;-72
2021/08/14 11:34:13;;;;;;;9.90;4.25;;;;;;;38.03;26.71;99125.16;4890289;29;20502;-71
2021/08/14 11:36:41;;;;;;;5.35;4.10;;;;;;;39.91;24.48;99129.41;4883859;29;20099;-71
2021/08/14 11:39:07;;;;;;;;;;;;;;;39.41;24.86;99124.31;4894361;29;20053;-72
2021/08/14 11:41:32;;;;;;;5.70;4.20;;;;;;;39.54;24.79;99120.78;4888939;29;19969;-71
2021/08/14 11:44:04;;;;;;;6.05;3.85;;;;;;;38.17;27.17;99116.13;4887696;29;20029;-71
2021/08/14 11:46:30;;;;;;;10.48;4.57;;;;;;;35.94;29.81;99116.59;4895815;29;20049;-72
2021/08/14 11:49:00;;;;;;;4.85;3.95;;;;;;;37.30;27.88;99113.59;4883738;29;20035;-72
2021/08/14 11:51:27;;;;;;;8.60;4.18;;;;;;;38.76;26.28;99106.75;4898952;29;20028;-72
2021/08/14 11:54:08;;;;;;;8.82;4.60;;;;;;;40.68;23.52;99101.56;4899086;29;20036;-72
2021/08/14 11:56:35;;;;;;;7.05;3.92;;;;;;;36.63;28.87;99102.97;4883504;29;20037;-72
2021/08/14 11:59:01;;;;;;;7.82;4.65;;;;;;;38.84;25.80;99095.75;4893419;29;20104;-72
2021/08/14 12:01:26;;;;;;;4.93;3.92;;;;;;;39.66;26.31;99099.34;4887343;29;20194;-72
2021/08/14 12:03:58;;;;;;;7.07;4.40;;;;;;;36.89;29.41;99095.19;4894343;29;20028;-72
2021/08/14 12:06:27;;;;;;;8.60;4.82;;;;;;;37.07;28.22;99091.28;4894822;29;20025;-73
2021/08/14 12:08:55;;;;;;;7.07;4.15;;;;;;;35.89;29.82;99094.75;4883310;29;20100;-72
2021/08/14 12:11:23;;;;;;;8.45;4.95;;;;;;;34.57;32.72;99084.88;4896720;29;20116;-72
2021/08/14 12:14:19;;;;;;;10.47;4.83;;;;;;;34.07;33.52;99088.66;4883040;29;20463;-72
2021/08/14 12:16:47;;;;;;;8.23;4.47;;;;;;;34.56;32.85;99083.19;4895329;29;20810;-72
2021/08/14 12:19:13;;;;;;;6.93;5.13;;;;;;;33.87;33.25;99083.59;4885508;29;20053;-76
2021/08/14 12:21:39;;;;;;;10.73;4.90;;;;;;;33.10;34.67;99074.09;4898313;29;20044;-77
2021/08/14 12:24:06;;;;;;;10.25;5.50;;;;;;;33.52;34.95;99067.84;4886022;29;20029;-77
2021/08/14 12:26:32;;;;;;;10.48;5.68;;;;;;;33.81;33.67;99070.00;4895560;29;20600;-76
2021/08/14 12:29:07;;;;;;;8.23;5.10;;;;;;;33.45;33.93;99073.84;4909076;29;20511;-77
2021/08/14 12:31:44;;;;;;;7.32;5.43;;;;;;;33.08;34.68;99065.38;4887218;29;20044;-76
2021/08/14 12:34:21;;;;;;;8.07;4.53;;;;;;;33.29;35.08;99057.69;4888603;29;20029;-77
2021/08/14 12:36:59;;;;;;;9.02;5.25;;;;;;;32.43;37.86;99061.41;4895020;29;20352;-77
2021/08/14 12:39:43;;;;;;;8.27;5.47;;;;;;;32.83;35.90;99059.03;4886651;29;20029;-77
2021/08/14 12:42:19;;;;;;;10.52;5.15;;;;;;;32.74;36.24;99055.53;4885096;29;20037;-77
2021/08/14 12:44:44;;;;;;;8.35;5.28;;;;;;;33.14;36.98;99049.44;4894628;29;20060;-77
2021/08/14 12:47:09;;;;;;;10.35;5.32;;;;;;;32.34;37.76;99051.59;4884671;29;20048;-76
2021/08/14 12:49:35;;;;;;;8.85;4.82;;;;;;;32.80;36.60;99041.44;4889574;29;20033;-76
2021/08/14 12:52:04;;;;;;;6.63;4.43;;;;;;;32.31;38.46;99043.88;4896499;29;20032;-76
2021/08/14 12:54:39;;;;;;;8.02;5.15;;;;;;;31.44;39.11;99042.91;4897688;29;20036;-76
2021/08/14 12:57:09;;;;;;;10.88;5.60;;;;;;;30.63;40.90;99042.84;4884003;29;20020;-76
2021/08/14 12:59:35;;;;;;;5.97;5.07;;;;;;;30.89;40.42;99048.34;4903562;29;20111;-76
2021/08/14 13:02:04;;;;;;;11.02;5.60;;;;;;;30.73;41.02;99042.81;4889290;29;20033;-76
2021/08/14 13:04:34;;;;;;;8.95;4.80;;;;;;;30.91;41.40;99041.03;4909243;29;20025;-76
2021/08/14 13:07:00;;;;;;;6.68;5.93;;;;;;;30.45;42.26;99040.09;4897627;29;20087;-76
2021/08/14 13:09:25;;;;;;;11.75;5.78;;;;;;;30.18;42.15;99034.75;4897699;29;20502;-77
2021/08/14 13:11:51;;;;;;;9.95;5.80;;;;;;;29.51;43.41;99043.66;4886833;29;20032;-78
2021/08/14 13:14:17;;;;;;;10.38;6.05;;;;;;;29.44;42.98;99038.03;4907571;29;20037;-73
2021/08/14 13:16:43;;;;;;;6.07;5.13;;;;;;;30.02;42.90;99031.78;4882297;29;20052;-72
2021/08/14 13:19:08;;;;;;;6.68;5.47;;;;;;;30.14;43.43;99030.66;4892151;29;20032;-72
2021/08/14 13:21:36;;;;;;;7.90;5.13;;;;;;;30.54;41.74;99022.31;4894549;29;20021;-72
2021/08/14 13:24:02;;;;;;;10.80;5.82;;;;;;;29.38;43.48;99027.91;4884942;29;20487;-72
2021/08/14 13:26:28;;;;;;;10.27;5.32;;;;;;;29.38;43.01;99028.75;4894004;29;20035;-72
2021/08/14 13:28:54;;;;;;;5.82;5.20;;;;;;;30.12;42.77;99022.78;4890167;29;20033;-72
2021/08/14 13:31:19;;;;;;;10.82;5.57;;;;;;;30.84;40.99;99021.19;4890529;29;20024;-72
2021/08/14 13:33:44;;;;;;;6.28;5.38;;;;;;;29.86;42.54;99022.53;4893592;29;20032;-72
2021/08/14 13:36:10;;;;;;;9.48;5.90;;;;;;;28.93;43.73;99029.25;4891653;29;20036;-72
2021/08/14 13:38:35;;;;;;;7.75;6.03;;;;;;;29.20;44.84;99025.09;4880503;29;20088;-72
2021/08/14 13:41:00;;;;;;;7.20;4.93;;;;;;;29.72;42.61;99020.31;4892876;29;20021;-72
2021/08/14 13:43:26;;;;;;;10.43;5.43;;;;;;;30.09;42.83;99017.69;4899946;29;20041;-72
2021/08/14 13:45:51;;;;;;;7.85;5.38;;;;;;;30.66;40.31;99009.59;4886244;29;20025;-72
2021/08/14 13:48:16;;;;;;;7.82;5.18;;;;;;;31.15;40.63;99010.16;4892331;29;20033;-73
2021/08/14 13:50:43;;;;;;;11.40;5.65;;;;;;;31.29;40.43;99006.13;4888962;29;20056;-72
2021/08/14 13:53:09;;;;;;;7.45;5.78;;;;;;;31.50;38.67;99005.78;4896686;29;20028;-72
2021/08/14 13:55:35;;;;;;;6.72;5.63;;;;;;;31.10;40.19;99012.44;4888498;29;20069;-72
2021/08/14 13:58:00;;;;;;;11.75;5.30;;;;;;;30.93;40.87;99011.41;4888737;29;20069;-72
2021/08/14 14:00:26;;;;;;;7.80;5.35;;;;;;;30.95;41.98;99009.44;4881093;29;20041;-73
2021/08/14 14:02:51;;;;;;;8.52;5.55;;;;;;;31.34;40.02;98999.31;4893279;29;20028;-72
2021/08/14 14:05:16;;;;;;;12.05;5.55;;;;;;;31.29;40.26;98996.25;4911176;29;20027;-73
2021/08/14 14:07:42;;;;;;;11.60;6.00;;;;;;;31.36;41.13;98997.31;4896753;29;20054;-72
2021/08/14 14:10:08;;;;;;;11.77;5.13;;;;;;;31.37;40.16;98998.97;4884005;29;20021;-73
2021/08/14 14:12:33;;;;;;;7.00;5.70;;;;;;;30.56;41.79;98998.09;4893358;29;20513;-72
2021/08/14 14:14:59;;;;;;;8.80;5.40;;;;;;;31.23;40.87;98994.13;4881502;29;20023;-72
2021/08/14 14:17:24;;;;;;;8.73;5.65;;;;;;;29.66;43.22;98989.69;4887931;29;20036;-72
2021/08/14 14:19:50;;;;;;;7.68;5.60;;;;;;;29.85;43.72;98996.81;4886439;29;20514;-72
2021/08/14 14:22:15;;;;;;;8.60;5.35;;;;;;;29.82;44.39;98988.25;4894374;29;20047;-72
2021/08/14 14:24:40;;;;;;;11.65;6.28;;;;;;;29.36;44.87;98997.84;4907735;29;20537;-72
2021/08/14 14:27:06;;;;;;;8.32;5.50;;;;;;;29.46;43.51;98998.69;4889777;29;20032;-72
2021/08/14 14:29:33;;;;;;;7.80;5.25;;;;;;;30.06;43.28;98990.41;4884452;29;20406;-73
2021/08/14 14:31:59;;;;;;;14.65;5.75;;;;;;;29.86;43.48;98987.81;4888032;29;20036;-72
2021/08/14 14:34:24;;;;;;;7.68;5.30;;;;;;;30.17;42.91;98982.22;4889083;29;20447;-72
2021/08/14 14:36:50;;;;;;;13.15;6.20;;;;;;;29.92;43.63;98984.53;4892956;29;20028;-72
2021/08/14 14:39:15;;;;;;;13.05;5.80;;;;;;;29.48;44.76;98982.50;4883607;29;20045;-72
2021/08/14 14:41:40;;;;;;;9.18;5.50;;;;;;;29.88;43.99;98977.84;4886398;29;20033;-72
2021/08/14 14:44:06;;;;;;;8.50;6.13;;;;;;;30.71;42.29;98975.25;4890386;29;20033;-74
2021/08/14 14:46:31;;;;;;;8.95;5.55;;;;;;;30.75;41.42;98971.25;4908340;29;20021;-72
2021/08/14 14:48:57;;;;;;;7.50;5.25;;;;;;;30.90;42.09;98964.41;4896112;29;20509;-73
2021/08/14 14:51:22;;;;;;;8.93;4.88;;;;;;;29.91;43.13;98977.53;4895723;29;20446;-72
2021/08/14 14:53:47;;;;;;;5.72;5.13;;;;;;;30.47;42.85;98965.09;4896526;29;20104;-73
2021/08/14 14:56:13;;;;;;;14.32;5.97;;;;;;;30.37;43.20;98966.97;4896625;29;20028;-72
2021/08/14 14:58:38;;;;;;;11.75;5.47;;;;;;;30.92;41.71;98962.41;4896303;29;20020;-73
2021/08/14 15:01:04;;;;;;;6.60;4.88;;;;;;;30.73;40.88;98962.53;4909472;29;20033;-73
2021/08/14 15:03:30;;;;;;;8.05;6.00;;;;;;;30.74;41.72;98964.22;4887784;29;20025;-72
2021/08/14 15:05:55;;;;;;;7.70;5.00;;;;;;;30.65;42.25;98962.41;4893432;29;20017;-72
2021/08/14 15:08:21;;;;;;;10.98;5.45;;;;;;;30.41;41.86;98962.97;4894516;29;20067;-72
2021/08/14 15:10:46;;;;;;;7.18;5.75;;;;;;;30.14;43.95;98955.81;4909150;29;20442;-72
2021/08/14 15:13:11;;;;;;;19.73;5.85;;;;;;;30.56;42.79;98960.66;4895983;29;20059;-73
2021/08/14 15:15:37;;;;;;;8.00;5.82;;;;;;;29.93;43.03;98958.66;4898143;29;20032;-72
2021/08/14 15:18:02;;;;;;;10.27;6.10;;;;;;;30.45;42.22;98954.50;4913916;29;20024;-72
2021/08/14 15:20:28;;;;;;;7.72;5.65;;;;;;;31.22;41.11;98949.63;4899649;29;20041;-72
2021/08/14 15:22:53;;;;;;;7.50;5.78;;;;;;;31.35;40.24;98952.78;4899509;29;20025;-72
2021/08/14 15:25:18;;;;;;;10.18;5.43;;;;;;;31.47;40.99;98946.16;4899384;29;20115;-72
2021/08/14 15:27:44;;;;;;;12.05;5.65;;;;;;;30.98;41.56;98956.44;4899507;29;20123;-72
2021/08/14 15:30:10;;;;;;;7.68;5.90;;;;;;;30.28;41.76;98944.63;4899316;29;20037;-72
2021/08/14 15:32:35;;;;;;;6.65;4.82;;;;;;;30.60;41.97;98952.16;4899194;29;20040;-72
2021/08/14 15:35:01;;;;;;;14.80;5.60;;;;;;;30.80;41.76;98942.22;4891534;29;20032;-72
2021/08/14 15:37:26;;;;;;;11.30;5.50;;;;;;;31.02;42.37;98940.06;4899543;29;20032;-72
2021/08/14 15:39:51;;;;;;;11.93;5.88;;;;;;;30.44;42.63;98939.47;4899369;29;20044;-73
2021/08/14 15:42:17;;;;;;;18.42;5.57;;;;;;;30.71;43.10;98933.28;4899032;29;20028;-72
2021/08/14 15:44:42;;;;;;;9.75;5.35;;;;;;;30.81;41.77;98933.22;4899240;29;20482;-73
2021/08/14 15:47:08;;;;;;;8.00;5.63;;;;;;;31.04;41.48;98930.03;4899482;29;20513;-72
2021/08/14 15:49:34;;;;;;;6.65;5.30;;;;;;;31.10;41.83;98924.09;4899229;29;20035;-72
2021/08/14 15:52:00;;;;;;;9.27;5.32;;;;;;;30.83;42.55;98933.88;4898841;29;20035;-73
2021/08/14 15:54:26;;;;;;;10.35;5.93;;;;;;;30.40;42.43;98937.25;4899221;29;20087;-72
2021/08/14 15:56:51;;;;;;;12.02;5.70;;;;;;;30.56;43.04;98939.25;4898915;29;20251;-73
2021/08/14 15:59:17;;;;;;;13.57;5.38;;;;;;;30.65;43.36;98930.31;4899137;29;20036;-72
2021/08/14 16:01:42;;;;;;;6.93;5.13;;;;;;;30.14;43.49;98931.75;4898548;29;20040;-72
2021/08/14 16:04:08;;;;;;;9.68;5.18;;;;;;;30.15;43.86;98926.25;4891230;29;20076;-72
2021/08/14 16:06:33;;;;;;;8.40;5.60;;;;;;;30.06;43.74;98931.63;4899035;29;20054;-72
2021/08/14 16:08:58;;;;;;;9.73;5.32;;;;;;;29.83;44.27;98929.31;4898985;29;20028;-72
2021/08/14 16:11:24;;;;;;;18.95;5.45;;;;;;;29.74;45.04;98922.19;4898487;29;20447;-72
2021/08/14 16:13:50;;;;;;;7.20;5.07;;;;;;;29.87;44.57;98922.69;4898927;29;20482;-72
2021/08/14 16:16:15;;;;;;;8.98;5.38;;;;;;;30.15;44.76;98920.91;4898839;29;20025;-73
2021/08/14 16:18:41;;;;;;;11.75;5.68;;;;;;;30.23;44.05;98927.38;4898952;29;20024;-73
2021/08/14 16:21:10;;;;;;;14.15;5.40;;;;;;;29.80;45.08;98918.94;4898406;29;20052;-73
2021/08/14 16:23:41;;;;;;;11.07;5.68;;;;;;;29.53;44.92;98918.84;4898360;29;20032;-73
2021/08/14 16:26:07;;;;;;;9.13;6.18;;;;;;;29.79;45.01;98914.59;4898077;29;20117;-73
2021/08/14 16:28:33;;;;;;;14.50;5.70;;;;;;;29.59;45.30;98918.28;4898578;29;20112;-73
2021/08/14 16:30:59;;;;;;;15.38;5.82;;;;;;;29.95;44.40;98913.94;4898502;29;20033;-73
2021/08/14 16:33:24;;;;;;;6.65;5.63;;;;;;;29.68;44.73;98917.41;4892447;29;20538;-73
2021/08/14 16:35:50;;;;;;;9.52;5.18;;;;;;;29.81;44.88;98917.94;4896621;29;20547;-73
2021/08/14 16:38:15;;;;;;;8.65;5.40;;;;;;;29.84;45.98;98906.97;4898431;29;20032;-73
2021/08/14 16:40:41;;;;;;;5.78;5.18;;;;;;;29.63;45.63;98909.00;4898296;29;20382;-72
2021/08/14 16:43:06;;;;;;;8.70;5.60;;;;;;;29.70;44.71;98912.78;4898142;29;20025;-73
2021/08/14 16:45:32;;;;;;;13.20;6.00;;;;;;;29.63;45.26;98914.34;4912734;29;20043;-72
2021/08/14 16:47:58;;;;;;;9.70;5.22;;;;;;;29.83;44.22;98910.59;4898262;29;20111;-73
2021/08/14 16:50:23;;;;;;;11.68;5.95;;;;;;;29.91;44.61;98902.69;4898400;29;20487;-72
2021/08/14 16:52:51;;;;;;;11.73;6.38;;;;;;;29.60;45.41;98898.63;4898009;29;20031;-73
2021/08/14 16:55:17;;;;;;;9.32;5.43;;;;;;;29.58;46.26;98903.25;4897976;29;20028;-73
2021/08/14 16:57:42;;;;;;;14.50;5.78;;;;;;;29.63;46.95;98898.31;4898001;29;20091;-72
2021/08/14 17:00:08;;;;;;;12.68;5.82;;;;;;;29.98;45.06;98904.78;4898102;29;20115;-73
2021/08/14 17:02:33;;;;;;;10.73;5.18;;;;;;;29.78;45.08;98901.34;4897871;29;20044;-73
2021/08/14 17:04:59;;;;;;;8.32;5.90;;;;;;;29.48;45.51;98899.72;4889952;29;20025;-73
2021/08/14 17:07:25;;;;;;;10.05;6.00;;;;;;;29.63;45.04;98890.28;4897993;29;20037;-77
2021/08/14 17:09:50;;;;;;;6.35;5.20;;;;;;;29.09;46.62;98892.63;4897802;29;20483;-72
2021/08/14 17:12:18;;;;;;;9.23;5.43;;;;;;;29.18;47.31;98896.28;4897545;29;20033;-72
2021/08/14 17:14:44;;;;;;;8.97;5.73;;;;;;;29.06;47.24;98890.28;4897767;29;20490;-72
2021/08/14 17:17:09;;;;;;;11.70;5.90;;;;;;;29.32;46.31;98897.66;4897775;29;20071;-72
2021/08/14 17:19:34;;;;;;;10.50;5.88;;;;;;;29.03;46.71;98889.72;4897551;29;20064;-72
2021/08/14 17:22:00;;;;;;;10.57;5.65;;;;;;;29.27;46.17;98892.75;4897467;29;20034;-72
2021/08/14 17:24:25;;;;;;;6.65;5.07;;;;;;;29.22;46.08;98887.00;4897457;29;20020;-72
2021/08/14 17:26:50;;;;;;;12.32;6.18;;;;;;;28.80;47.66;98889.94;4897477;29;20546;-72
2021/08/14 17:29:16;;;;;;;12.10;5.80;;;;;;;28.69;49.26;98895.44;4897548;29;20494;-72
2021/08/14 17:31:41;;;;;;;10.50;5.68;;;;;;;28.65;50.54;98886.03;4897209;29;20048;-72
2021/08/14 17:34:06;;;;;;;7.60;5.65;;;;;;;28.61;51.63;98900.63;4889428;29;20025;-72
2021/08/14 17:36:32;;;;;;;10.52;6.15;;;;;;;28.35;52.80;98897.66;4897311;29;20035;-72
2021/08/14 17:38:57;;;;;;;9.73;6.20;;;;;;;28.12;53.77;98894.31;4897338;29;20035;-72
2021/08/14 17:41:22;;;;;;;12.63;6.43;;;;;;;27.95;54.69;98892.28;4896961;29;20526;-72
2021/08/14 17:43:48;;;;;;;9.98;6.57;;;;;;;27.80;55.50;98894.47;4897348;29;20091;-72
2021/08/14 17:46:13;;;;;;;13.73;6.43;;;;;;;27.65;56.13;98889.47;4897152;29;20020;-72
2021/08/14 17:48:39;;;;;;;12.43;6.55;;;;;;;27.52;56.51;98890.69;4897394;29;20028;-73
2021/08/14 17:51:05;;;;;;;9.88;6.10;;;;;;;27.28;57.46;98886.50;4896865;29;20035;-72
2021/08/14 17:53:31;;;;;;;10.90;5.50;;;;;;;27.17;57.78;98881.22;4897146;29;20029;-79
2021/08/14 17:55:56;;;;;;;13.27;6.55;;;;;;;27.01;57.46;98880.81;4897034;29;20169;-72
2021/08/14 17:58:21;;;;;;;16.92;6.18;;;;;;;26.81;58.13;98885.97;4897084;29;20407;-72
2021/08/14 18:00:47;;;;;;;13.32;6.07;;;;;;;26.63;58.46;98891.00;4896807;29;20106;-78
2021/08/14 18:03:14;;;;;;;8.82;6.53;;;;;;;26.67;58.68;98899.56;4892561;29;20116;-72
2021/08/14 18:05:40;;;;;;;10.55;6.35;;;;;;;26.58;58.81;98889.69;4893612;29;20492;-72
2021/08/14 18:08:06;;;;;;;8.43;6.80;;;;;;;26.55;58.90;98887.28;4897375;29;20059;-79
2021/08/14 18:10:32;;;;;;;12.45;6.68;;;;;;;26.45;58.99;98883.69;4896905;29;20596;-77
2021/08/14 18:12:57;;;;;;;10.68;6.25;;;;;;;26.33;58.44;98886.34;4896995;29;20025;-72
2021/08/14 18:15:23;;;;;;;13.68;6.35;;;;;;;26.25;59.35;98883.44;4896922;29;20126;-78
2021/08/14 18:17:49;;;;;;;10.95;5.95;;;;;;;26.16;59.41;98884.22;4896868;29;20025;-72
2021/08/14 18:20:14;;;;;;;12.07;6.32;;;;;;;26.01;59.84;98890.72;4896811;29;20033;-73
2021/08/14 18:22:44;;;;;;;12.55;6.05;;;;;;;25.98;60.27;98888.34;4896614;29;20264;-77
2021/08/14 18:25:09;;;;;;;10.82;6.60;;;;;;;25.85;61.13;98886.66;4897006;29;20498;-78
2021/08/14 18:27:35;;;;;;;14.07;6.70;;;;;;;25.47;62.48;98892.25;4896724;29;20025;-78
2021/08/14 18:30:00;;;;;;;13.90;6.13;;;;;;;25.27;63.33;98888.50;4896904;29;20032;-73
2021/08/14 18:32:25;;;;;;;11.95;6.75;;;;;;;25.16;63.58;98888.50;4896416;29;20115;-73